sensor_id;sensor_type;location;lat;lon;timestamp;temperature;humidity
4107;DHT22;21906;50.812;7.132;2023-08-24T00:02:03;21.70;69.00
4107;DHT22;21906;50.812;7.132;2023-08-24T00:04:29;21.60;69.10
4107;DHT22;21906;50.812;7.132;2023-08-24T00:06:54;21.60;69.20
4107;DHT22;21906;50.812;7.132;2023-08-24T00:09:20;21.60;69.50
4107;DHT22;21906;50.812;7.132;2023-08-24T00:11:46;21.50;69.40
4107;DHT22;21906;50.812;7.132;2023-08-24T00:14:12;21.50;69.40
4107;DHT22;21906;50.812;7.132;2023-08-24T00:16:38;21.50;69.50
4107;DHT22;21906;50.812;7.132;2023-08-24T00:19:04;21.50;69.50
4107;DHT22;21906;50.812;7.132;2023-08-24T00:21:30;21.40;69.80
4107;DHT22;21906;50.812;7.132;2023-08-24T00:23:55;21.40;69.90
4107;DHT22;21906;50.812;7.132;2023-08-24T00:26:21;21.40;69.90
4107;DHT22;21906;50.812;7.132;2023-08-24T00:28:47;21.40;70.00
4107;DHT22;21906;50.812;7.132;2023-08-24T00:31:14;21.40;69.70
4107;DHT22;21906;50.812;7.132;2023-08-24T00:33:40;21.40;69.80
4107;DHT22;21906;50.812;7.132;2023-08-24T00:36:06;21.40;69.80
4107;DHT22;21906;50.812;7.132;2023-08-24T00:38:32;21.40;69.80
4107;DHT22;21906;50.812;7.132;2023-08-24T00:40:58;21.30;69.70
4107;DHT22;21906;50.812;7.132;2023-08-24T00:43:25;21.30;69.70
4107;DHT22;21906;50.812;7.132;2023-08-24T00:45:51;21.30;70.00
4107;DHT22;21906;50.812;7.132;2023-08-24T00:48:21;21.20;70.10
4107;DHT22;21906;50.812;7.132;2023-08-24T00:50:52;21.20;70.30
4107;DHT22;21906;50.812;7.132;2023-08-24T00:53:19;21.10;70.50
4107;DHT22;21906;50.812;7.132;2023-08-24T00:55:45;21.00;70.60
4107;DHT22;21906;50.812;7.132;2023-08-24T00:58:12;21.10;70.50
4107;DHT22;21906;50.812;7.132;2023-08-24T01:00:38;21.10;70.50
4107;DHT22;21906;50.812;7.132;2023-08-24T01:03:04;21.10;70.60
4107;DHT22;21906;50.812;7.132;2023-08-24T01:05:30;21.00;70.60
4107;DHT22;21906;50.812;7.132;2023-08-24T01:07:56;21.00;70.50
4107;DHT22;21906;50.812;7.132;2023-08-24T01:10:22;21.00;70.50
4107;DHT22;21906;50.812;7.132;2023-08-24T01:13:02;21.00;70.40
4107;DHT22;21906;50.812;7.132;2023-08-24T01:16:04;21.00;70.50
4107;DHT22;21906;50.812;7.132;2023-08-24T01:18:34;21.00;70.50
4107;DHT22;21906;50.812;7.132;2023-08-24T01:21:02;21.00;70.60
4107;DHT22;21906;50.812;7.132;2023-08-24T01:23:33;21.00;70.70
4107;DHT22;21906;50.812;7.132;2023-08-24T01:26:04;21.00;70.60
4107;DHT22;21906;50.812;7.132;2023-08-24T01:28:30;21.00;70.60
4107;DHT22;21906;50.812;7.132;2023-08-24T01:30:56;21.00;70.50
4107;DHT22;21906;50.812;7.132;2023-08-24T01:33:22;21.00;70.50
4107;DHT22;21906;50.812;7.132;2023-08-24T01:35:48;21.00;70.80
4107;DHT22;21906;50.812;7.132;2023-08-24T01:38:14;20.90;70.80
4107;DHT22;21906;50.812;7.132;2023-08-24T01:43:26;20.90;71.10
4107;DHT22;21906;50.812;7.132;2023-08-24T01:45:55;20.90;71.30
4107;DHT22;21906;50.812;7.132;2023-08-24T01:48:21;20.90;71.30
4107;DHT22;21906;50.812;7.132;2023-08-24T01:50:48;20.90;71.60
4107;DHT22;21906;50.812;7.132;2023-08-24T01:53:14;20.80;71.60
4107;DHT22;21906;50.812;7.132;2023-08-24T01:55:40;20.90;71.70
4107;DHT22;21906;50.812;7.132;2023-08-24T01:58:08;20.90;71.70
4107;DHT22;21906;50.812;7.132;2023-08-24T02:00:34;20.90;71.70
4107;DHT22;21906;50.812;7.132;2023-08-24T02:03:00;20.80;71.80
4107;DHT22;21906;50.812;7.132;2023-08-24T02:05:25;20.70;72.00
4107;DHT22;21906;50.812;7.132;2023-08-24T02:07:53;20.80;72.10
4107;DHT22;21906;50.812;7.132;2023-08-24T02:10:19;20.70;72.30
4107;DHT22;21906;50.812;7.132;2023-08-24T02:12:45;20.60;72.30
4107;DHT22;21906;50.812;7.132;2023-08-24T02:15:10;20.60;72.50
4107;DHT22;21906;50.812;7.132;2023-08-24T02:17:36;20.50;72.50
4107;DHT22;21906;50.812;7.132;2023-08-24T02:20:02;20.60;72.30
4107;DHT22;21906;50.812;7.132;2023-08-24T02:22:29;20.60;72.40
4107;DHT22;21906;50.812;7.132;2023-08-24T02:24:56;20.60;72.40
4107;DHT22;21906;50.812;7.132;2023-08-24T02:27:21;20.60;72.40
4107;DHT22;21906;50.812;7.132;2023-08-24T02:29:47;20.60;72.60
4107;DHT22;21906;50.812;7.132;2023-08-24T02:32:12;20.50;72.70
4107;DHT22;21906;50.812;7.132;2023-08-24T02:34:38;20.40;73.00
4107;DHT22;21906;50.812;7.132;2023-08-24T02:37:04;20.40;73.20
4107;DHT22;21906;50.812;7.132;2023-08-24T02:39:29;20.40;73.20
4107;DHT22;21906;50.812;7.132;2023-08-24T02:41:55;20.40;73.20
4107;DHT22;21906;50.812;7.132;2023-08-24T02:44:21;20.40;73.50
4107;DHT22;21906;50.812;7.132;2023-08-24T02:46:48;20.40;73.30
4107;DHT22;21906;50.812;7.132;2023-08-24T02:49:13;20.40;73.40
4107;DHT22;21906;50.812;7.132;2023-08-24T02:51:39;20.40;73.70
4107;DHT22;21906;50.812;7.132;2023-08-24T02:54:05;20.40;73.70
4107;DHT22;21906;50.812;7.132;2023-08-24T02:56:31;20.20;74.10
4107;DHT22;21906;50.812;7.132;2023-08-24T02:58:56;20.10;74.30
4107;DHT22;21906;50.812;7.132;2023-08-24T03:01:22;20.10;74.20
4107;DHT22;21906;50.812;7.132;2023-08-24T03:03:47;20.20;74.20
4107;DHT22;21906;50.812;7.132;2023-08-24T03:06:13;20.20;74.20
4107;DHT22;21906;50.812;7.132;2023-08-24T03:08:39;20.20;74.20
4107;DHT22;21906;50.812;7.132;2023-08-24T03:11:04;20.20;73.90
4107;DHT22;21906;50.812;7.132;2023-08-24T03:13:30;20.20;73.90
4107;DHT22;21906;50.812;7.132;2023-08-24T03:15:57;20.30;73.90
4107;DHT22;21906;50.812;7.132;2023-08-24T03:18:22;20.20;73.90
4107;DHT22;21906;50.812;7.132;2023-08-24T03:20:49;20.30;73.80
4107;DHT22;21906;50.812;7.132;2023-08-24T03:23:17;20.30;73.80
4107;DHT22;21906;50.812;7.132;2023-08-24T03:25:43;20.30;73.80
4107;DHT22;21906;50.812;7.132;2023-08-24T03:28:10;20.40;73.40
4107;DHT22;21906;50.812;7.132;2023-08-24T03:30:37;20.30;73.50
4107;DHT22;21906;50.812;7.132;2023-08-24T03:33:03;20.20;73.70
4107;DHT22;21906;50.812;7.132;2023-08-24T03:35:31;20.20;73.40
4107;DHT22;21906;50.812;7.132;2023-08-24T03:37:57;20.30;73.10
4107;DHT22;21906;50.812;7.132;2023-08-24T03:40:22;20.30;73.00
4107;DHT22;21906;50.812;7.132;2023-08-24T03:42:48;20.40;73.10
4107;DHT22;21906;50.812;7.132;2023-08-24T03:45:14;20.40;72.80
4107;DHT22;21906;50.812;7.132;2023-08-24T03:47:39;20.40;72.80
4107;DHT22;21906;50.812;7.132;2023-08-24T03:50:05;20.40;72.30
4107;DHT22;21906;50.812;7.132;2023-08-24T03:52:31;20.50;72.10
4107;DHT22;21906;50.812;7.132;2023-08-24T03:54:57;20.50;72.00
4107;DHT22;21906;50.812;7.132;2023-08-24T03:57:22;20.50;71.80
4107;DHT22;21906;50.812;7.132;2023-08-24T03:59:48;20.50;71.60
4107;DHT22;21906;50.812;7.132;2023-08-24T04:02:14;20.50;72.00
4107;DHT22;21906;50.812;7.132;2023-08-24T04:04:40;20.60;72.20
4107;DHT22;21906;50.812;7.132;2023-08-24T04:07:05;20.60;72.00
4107;DHT22;21906;50.812;7.132;2023-08-24T04:09:31;20.70;71.70
4107;DHT22;21906;50.812;7.132;2023-08-24T04:11:57;20.70;71.70
4107;DHT22;21906;50.812;7.132;2023-08-24T04:14:22;20.80;71.40
4107;DHT22;21906;50.812;7.132;2023-08-24T04:16:48;20.80;71.60
4107;DHT22;21906;50.812;7.132;2023-08-24T04:19:14;20.80;72.20
4107;DHT22;21906;50.812;7.132;2023-08-24T04:21:39;20.80;72.60
4107;DHT22;21906;50.812;7.132;2023-08-24T04:24:05;20.80;72.70
4107;DHT22;21906;50.812;7.132;2023-08-24T04:26:31;20.80;72.80
4107;DHT22;21906;50.812;7.132;2023-08-24T04:28:56;20.80;72.90
4107;DHT22;21906;50.812;7.132;2023-08-24T04:31:22;20.80;73.00
4107;DHT22;21906;50.812;7.132;2023-08-24T04:33:48;20.70;73.20
4107;DHT22;21906;50.812;7.132;2023-08-24T04:36:13;20.60;73.20
4107;DHT22;21906;50.812;7.132;2023-08-24T04:38:39;20.70;73.20
4107;DHT22;21906;50.812;7.132;2023-08-24T04:41:08;20.70;72.90
4107;DHT22;21906;50.812;7.132;2023-08-24T04:43:34;20.80;72.90
4107;DHT22;21906;50.812;7.132;2023-08-24T04:46:00;20.80;73.00
4107;DHT22;21906;50.812;7.132;2023-08-24T04:48:26;20.90;72.80
4107;DHT22;21906;50.812;7.132;2023-08-24T04:50:52;20.90;72.60
4107;DHT22;21906;50.812;7.132;2023-08-24T04:53:19;20.90;72.60
4107;DHT22;21906;50.812;7.132;2023-08-24T04:55:46;20.90;72.90
4107;DHT22;21906;50.812;7.132;2023-08-24T04:58:12;20.80;73.30
4107;DHT22;21906;50.812;7.132;2023-08-24T05:00:39;20.90;73.80
4107;DHT22;21906;50.812;7.132;2023-08-24T05:03:06;20.90;74.10
4107;DHT22;21906;50.812;7.132;2023-08-24T05:05:32;20.70;74.60
4107;DHT22;21906;50.812;7.132;2023-08-24T05:08:00;20.70;75.30
4107;DHT22;21906;50.812;7.132;2023-08-24T05:10:30;20.60;75.50
4107;DHT22;21906;50.812;7.132;2023-08-24T05:12:56;20.60;75.80
4107;DHT22;21906;50.812;7.132;2023-08-24T05:15:22;20.60;76.10
4107;DHT22;21906;50.812;7.132;2023-08-24T05:17:47;20.50;76.60
4107;DHT22;21906;50.812;7.132;2023-08-24T05:20:13;20.50;76.60
4107;DHT22;21906;50.812;7.132;2023-08-24T05:22:39;20.50;76.70
4107;DHT22;21906;50.812;7.132;2023-08-24T05:25:05;20.50;76.90
4107;DHT22;21906;50.812;7.132;2023-08-24T05:27:31;20.50;77.20
4107;DHT22;21906;50.812;7.132;2023-08-24T05:29:57;20.60;77.00
4107;DHT22;21906;50.812;7.132;2023-08-24T05:32:23;20.40;77.40
4107;DHT22;21906;50.812;7.132;2023-08-24T05:34:49;20.40;77.60
4107;DHT22;21906;50.812;7.132;2023-08-24T05:37:15;20.40;77.90
4107;DHT22;21906;50.812;7.132;2023-08-24T05:39:40;20.40;78.10
4107;DHT22;21906;50.812;7.132;2023-08-24T05:42:07;20.40;78.00
4107;DHT22;21906;50.812;7.132;2023-08-24T05:44:33;20.50;78.00
4107;DHT22;21906;50.812;7.132;2023-08-24T05:46:59;20.40;78.30
4107;DHT22;21906;50.812;7.132;2023-08-24T05:49:24;20.40;78.50
4107;DHT22;21906;50.812;7.132;2023-08-24T05:51:51;20.40;78.60
4107;DHT22;21906;50.812;7.132;2023-08-24T05:54:16;20.30;78.90
4107;DHT22;21906;50.812;7.132;2023-08-24T05:56:47;20.40;78.50
4107;DHT22;21906;50.812;7.132;2023-08-24T05:59:13;20.50;78.20
4107;DHT22;21906;50.812;7.132;2023-08-24T06:01:40;20.60;78.10
4107;DHT22;21906;50.812;7.132;2023-08-24T06:04:09;20.70;77.80
4107;DHT22;21906;50.812;7.132;2023-08-24T06:06:36;20.70;77.50
4107;DHT22;21906;50.812;7.132;2023-08-24T06:09:02;20.70;77.20
4107;DHT22;21906;50.812;7.132;2023-08-24T06:11:32;20.70;76.90
4107;DHT22;21906;50.812;7.132;2023-08-24T06:13:57;20.60;76.70
4107;DHT22;21906;50.812;7.132;2023-08-24T06:16:23;20.60;76.60
4107;DHT22;21906;50.812;7.132;2023-08-24T06:18:49;20.60;76.70
4107;DHT22;21906;50.812;7.132;2023-08-24T06:21:15;20.50;76.90
4107;DHT22;21906;50.812;7.132;2023-08-24T06:23:41;20.60;76.90
4107;DHT22;21906;50.812;7.132;2023-08-24T06:26:07;20.60;76.70
4107;DHT22;21906;50.812;7.132;2023-08-24T06:28:33;20.60;76.90
4107;DHT22;21906;50.812;7.132;2023-08-24T06:31:00;20.70;77.00
4107;DHT22;21906;50.812;7.132;2023-08-24T06:33:29;20.70;76.70
4107;DHT22;21906;50.812;7.132;2023-08-24T06:35:58;20.70;77.30
4107;DHT22;21906;50.812;7.132;2023-08-24T06:38:24;20.60;77.50
4107;DHT22;21906;50.812;7.132;2023-08-24T06:40:50;20.70;77.30
4107;DHT22;21906;50.812;7.132;2023-08-24T06:43:16;20.70;77.00
4107;DHT22;21906;50.812;7.132;2023-08-24T06:45:41;20.80;77.20
4107;DHT22;21906;50.812;7.132;2023-08-24T06:48:07;20.90;77.20
4107;DHT22;21906;50.812;7.132;2023-08-24T06:50:33;20.90;76.80
4107;DHT22;21906;50.812;7.132;2023-08-24T06:52:59;21.10;76.40
4107;DHT22;21906;50.812;7.132;2023-08-24T06:55:26;21.20;76.30
4107;DHT22;21906;50.812;7.132;2023-08-24T06:57:52;21.20;75.70
4107;DHT22;21906;50.812;7.132;2023-08-24T07:00:19;21.30;75.10
4107;DHT22;21906;50.812;7.132;2023-08-24T07:02:48;21.30;75.50
4107;DHT22;21906;50.812;7.132;2023-08-24T07:05:15;21.40;75.40
4107;DHT22;21906;50.812;7.132;2023-08-24T07:07:44;21.50;75.30
4107;DHT22;21906;50.812;7.132;2023-08-24T07:10:11;21.60;76.70
4107;DHT22;21906;50.812;7.132;2023-08-24T07:12:37;21.60;75.30
4107;DHT22;21906;50.812;7.132;2023-08-24T07:15:06;21.60;75.60
4107;DHT22;21906;50.812;7.132;2023-08-24T07:17:32;21.70;75.40
4107;DHT22;21906;50.812;7.132;2023-08-24T07:19:58;21.90;76.30
4107;DHT22;21906;50.812;7.132;2023-08-24T07:22:24;21.90;74.50
4107;DHT22;21906;50.812;7.132;2023-08-24T07:24:52;21.90;74.00
4107;DHT22;21906;50.812;7.132;2023-08-24T07:27:18;22.00;74.60
4107;DHT22;21906;50.812;7.132;2023-08-24T07:29:44;22.10;74.10
4107;DHT22;21906;50.812;7.132;2023-08-24T07:32:10;22.20;73.60
4107;DHT22;21906;50.812;7.132;2023-08-24T07:34:35;22.30;73.00
4107;DHT22;21906;50.812;7.132;2023-08-24T07:37:01;22.30;72.20
4107;DHT22;21906;50.812;7.132;2023-08-24T07:39:27;22.40;74.20
4107;DHT22;21906;50.812;7.132;2023-08-24T07:41:53;22.40;73.20
4107;DHT22;21906;50.812;7.132;2023-08-24T07:44:19;22.60;73.20
4107;DHT22;21906;50.812;7.132;2023-08-24T07:46:44;22.70;72.70
4107;DHT22;21906;50.812;7.132;2023-08-24T07:49:10;22.80;72.50
4107;DHT22;21906;50.812;7.132;2023-08-24T07:51:36;22.90;71.80
4107;DHT22;21906;50.812;7.132;2023-08-24T07:54:02;23.00;72.30
4107;DHT22;21906;50.812;7.132;2023-08-24T07:56:30;23.10;72.10
4107;DHT22;21906;50.812;7.132;2023-08-24T07:58:55;23.20;71.40
4107;DHT22;21906;50.812;7.132;2023-08-24T08:01:21;23.30;69.80
4107;DHT22;21906;50.812;7.132;2023-08-24T08:03:47;23.40;69.40
4107;DHT22;21906;50.812;7.132;2023-08-24T08:06:13;23.40;68.90
4107;DHT22;21906;50.812;7.132;2023-08-24T08:08:39;23.60;68.40
4107;DHT22;21906;50.812;7.132;2023-08-24T08:11:05;23.70;68.80
4107;DHT22;21906;50.812;7.132;2023-08-24T08:13:30;23.80;67.20
4107;DHT22;21906;50.812;7.132;2023-08-24T08:16:04;23.90;68.30
4107;DHT22;21906;50.812;7.132;2023-08-24T08:18:31;23.90;67.60
4107;DHT22;21906;50.812;7.132;2023-08-24T08:20:56;24.00;67.90
4107;DHT22;21906;50.812;7.132;2023-08-24T08:23:22;24.00;66.90
4107;DHT22;21906;50.812;7.132;2023-08-24T08:25:48;24.10;66.90
4107;DHT22;21906;50.812;7.132;2023-08-24T08:28:13;24.20;67.20
4107;DHT22;21906;50.812;7.132;2023-08-24T08:30:39;24.30;65.90
4107;DHT22;21906;50.812;7.132;2023-08-24T08:33:05;24.40;66.40
4107;DHT22;21906;50.812;7.132;2023-08-24T08:35:30;24.40;65.20
4107;DHT22;21906;50.812;7.132;2023-08-24T08:37:56;24.50;67.00
4107;DHT22;21906;50.812;7.132;2023-08-24T08:40:25;24.50;65.50
4107;DHT22;21906;50.812;7.132;2023-08-24T08:42:56;24.70;64.20
4107;DHT22;21906;50.812;7.132;2023-08-24T08:45:25;24.80;65.00
4107;DHT22;21906;50.812;7.132;2023-08-24T08:47:51;24.90;66.00
4107;DHT22;21906;50.812;7.132;2023-08-24T08:50:18;24.90;65.60
4107;DHT22;21906;50.812;7.132;2023-08-24T08:52:44;25.00;64.30
4107;DHT22;21906;50.812;7.132;2023-08-24T08:55:10;25.10;62.80
4107;DHT22;21906;50.812;7.132;2023-08-24T08:57:37;25.10;61.30
4107;DHT22;21906;50.812;7.132;2023-08-24T09:00:05;25.20;62.50
4107;DHT22;21906;50.812;7.132;2023-08-24T09:02:35;25.30;62.00
4107;DHT22;21906;50.812;7.132;2023-08-24T09:05:01;25.30;61.50
4107;DHT22;21906;50.812;7.132;2023-08-24T09:07:29;25.40;60.30
4107;DHT22;21906;50.812;7.132;2023-08-24T09:09:55;25.40;61.00
4107;DHT22;21906;50.812;7.132;2023-08-24T09:12:21;25.50;62.70
4107;DHT22;21906;50.812;7.132;2023-08-24T09:14:46;25.50;61.60
4107;DHT22;21906;50.812;7.132;2023-08-24T09:17:20;25.50;61.10
4107;DHT22;21906;50.812;7.132;2023-08-24T09:19:50;25.60;60.50
4107;DHT22;21906;50.812;7.132;2023-08-24T09:22:16;25.70;61.30
4107;DHT22;21906;50.812;7.132;2023-08-24T09:24:42;25.80;60.10
4107;DHT22;21906;50.812;7.132;2023-08-24T09:27:21;25.90;59.60
4107;DHT22;21906;50.812;7.132;2023-08-24T09:29:51;26.10;61.10
4107;DHT22;21906;50.812;7.132;2023-08-24T09:32:43;26.10;58.40
4107;DHT22;21906;50.812;7.132;2023-08-24T09:35:10;26.30;59.70
4107;DHT22;21906;50.812;7.132;2023-08-24T09:37:37;26.30;58.40
4107;DHT22;21906;50.812;7.132;2023-08-24T09:40:07;26.40;60.30
4107;DHT22;21906;50.812;7.132;2023-08-24T09:42:40;26.50;58.90
4107;DHT22;21906;50.812;7.132;2023-08-24T09:45:12;26.80;57.50
4107;DHT22;21906;50.812;7.132;2023-08-24T09:47:38;26.80;56.90
4107;DHT22;21906;50.812;7.132;2023-08-24T09:50:04;26.90;55.60
4107;DHT22;21906;50.812;7.132;2023-08-24T09:52:34;26.90;55.70
4107;DHT22;21906;50.812;7.132;2023-08-24T09:55:04;27.10;55.60
4107;DHT22;21906;50.812;7.132;2023-08-24T09:57:38;27.20;54.80
4107;DHT22;21906;50.812;7.132;2023-08-24T10:00:07;27.40;54.50
4107;DHT22;21906;50.812;7.132;2023-08-24T10:02:52;27.40;53.90
4107;DHT22;21906;50.812;7.132;2023-08-24T10:05:23;27.50;54.40
4107;DHT22;21906;50.812;7.132;2023-08-24T10:07:53;27.60;53.30
4107;DHT22;21906;50.812;7.132;2023-08-24T10:10:20;27.50;52.40
4107;DHT22;21906;50.812;7.132;2023-08-24T10:12:50;27.50;50.80
4107;DHT22;21906;50.812;7.132;2023-08-24T10:15:18;27.50;51.20
4107;DHT22;21906;50.812;7.132;2023-08-24T10:17:45;27.60;51.30
4107;DHT22;21906;50.812;7.132;2023-08-24T10:20:11;27.70;52.20
4107;DHT22;21906;50.812;7.132;2023-08-24T10:22:37;27.80;52.20
4107;DHT22;21906;50.812;7.132;2023-08-24T10:25:08;27.80;50.00
4107;DHT22;21906;50.812;7.132;2023-08-24T10:27:35;27.80;50.90
4107;DHT22;21906;50.812;7.132;2023-08-24T10:30:01;27.90;51.30
4107;DHT22;21906;50.812;7.132;2023-08-24T10:32:27;28.00;52.40
4107;DHT22;21906;50.812;7.132;2023-08-24T10:34:53;28.00;52.20
4107;DHT22;21906;50.812;7.132;2023-08-24T10:37:27;27.90;52.20
4107;DHT22;21906;50.812;7.132;2023-08-24T10:39:54;27.90;52.90
4107;DHT22;21906;50.812;7.132;2023-08-24T10:42:19;27.90;52.60
4107;DHT22;21906;50.812;7.132;2023-08-24T10:44:47;27.90;51.30
4107;DHT22;21906;50.812;7.132;2023-08-24T10:47:20;28.00;51.20
4107;DHT22;21906;50.812;7.132;2023-08-24T10:49:58;28.00;51.00
4107;DHT22;21906;50.812;7.132;2023-08-24T10:52:31;28.00;50.70
4107;DHT22;21906;50.812;7.132;2023-08-24T10:55:03;28.00;50.20
4107;DHT22;21906;50.812;7.132;2023-08-24T10:57:39;28.10;49.80
4107;DHT22;21906;50.812;7.132;2023-08-24T11:00:10;28.00;51.40
4107;DHT22;21906;50.812;7.132;2023-08-24T11:02:46;28.10;50.40
4107;DHT22;21906;50.812;7.132;2023-08-24T11:05:29;28.00;51.10
4107;DHT22;21906;50.812;7.132;2023-08-24T11:08:05;28.10;52.00
4107;DHT22;21906;50.812;7.132;2023-08-24T11:15:37;28.20;51.30
4107;DHT22;21906;50.812;7.132;2023-08-24T11:20:49;28.20;51.10
4107;DHT22;21906;50.812;7.132;2023-08-24T11:23:15;28.30;51.30
4107;DHT22;21906;50.812;7.132;2023-08-24T11:25:42;28.30;52.00
4107;DHT22;21906;50.812;7.132;2023-08-24T11:28:07;28.40;51.20
4107;DHT22;21906;50.812;7.132;2023-08-24T11:30:33;28.40;49.80
4107;DHT22;21906;50.812;7.132;2023-08-24T11:33:00;28.40;49.50
4107;DHT22;21906;50.812;7.132;2023-08-24T11:35:26;28.30;50.30
4107;DHT22;21906;50.812;7.132;2023-08-24T11:38:01;28.30;49.80
4107;DHT22;21906;50.812;7.132;2023-08-24T11:40:27;28.20;50.80
4107;DHT22;21906;50.812;7.132;2023-08-24T11:42:56;28.10;50.60
4107;DHT22;21906;50.812;7.132;2023-08-24T11:45:22;27.90;50.50
4107;DHT22;21906;50.812;7.132;2023-08-24T11:47:49;27.90;50.50
4107;DHT22;21906;50.812;7.132;2023-08-24T11:50:16;27.80;50.80
4107;DHT22;21906;50.812;7.132;2023-08-24T11:52:42;27.60;51.60
4107;DHT22;21906;50.812;7.132;2023-08-24T11:55:09;27.50;52.00
4107;DHT22;21906;50.812;7.132;2023-08-24T11:57:35;27.40;51.50
4107;DHT22;21906;50.812;7.132;2023-08-24T12:00:03;27.30;51.40
4107;DHT22;21906;50.812;7.132;2023-08-24T12:02:30;27.20;52.00
4107;DHT22;21906;50.812;7.132;2023-08-24T12:04:57;27.10;52.10
4107;DHT22;21906;50.812;7.132;2023-08-24T12:07:23;27.10;53.10
4107;DHT22;21906;50.812;7.132;2023-08-24T12:09:49;27.10;54.30
4107;DHT22;21906;50.812;7.132;2023-08-24T12:12:18;27.10;53.80
4107;DHT22;21906;50.812;7.132;2023-08-24T12:14:49;27.00;54.00
4107;DHT22;21906;50.812;7.132;2023-08-24T12:17:16;27.20;54.00
4107;DHT22;21906;50.812;7.132;2023-08-24T12:20:05;27.10;54.40
4107;DHT22;21906;50.812;7.132;2023-08-24T12:22:31;27.10;54.50
4107;DHT22;21906;50.812;7.132;2023-08-24T12:24:57;27.00;55.20
4107;DHT22;21906;50.812;7.132;2023-08-24T12:27:26;27.10;55.30
4107;DHT22;21906;50.812;7.132;2023-08-24T12:29:52;27.00;55.20
4107;DHT22;21906;50.812;7.132;2023-08-24T12:32:19;27.00;55.30
4107;DHT22;21906;50.812;7.132;2023-08-24T12:34:48;26.90;55.30
4107;DHT22;21906;50.812;7.132;2023-08-24T12:37:15;26.90;55.40
4107;DHT22;21906;50.812;7.132;2023-08-24T12:39:40;26.90;55.80
4107;DHT22;21906;50.812;7.132;2023-08-24T12:42:06;26.90;56.50
4107;DHT22;21906;50.812;7.132;2023-08-24T12:44:32;26.90;56.70
4107;DHT22;21906;50.812;7.132;2023-08-24T12:46:58;26.80;57.00
4107;DHT22;21906;50.812;7.132;2023-08-24T12:49:24;26.70;57.50
4107;DHT22;21906;50.812;7.132;2023-08-24T12:51:50;26.70;57.60
4107;DHT22;21906;50.812;7.132;2023-08-24T12:54:16;26.70;57.80
4107;DHT22;21906;50.812;7.132;2023-08-24T12:56:42;26.70;58.30
4107;DHT22;21906;50.812;7.132;2023-08-24T12:59:08;26.60;59.10
4107;DHT22;21906;50.812;7.132;2023-08-24T13:01:34;26.60;61.30
4107;DHT22;21906;50.812;7.132;2023-08-24T13:04:00;26.60;62.90
4107;DHT22;21906;50.812;7.132;2023-08-24T13:06:26;26.50;64.00
4107;DHT22;21906;50.812;7.132;2023-08-24T13:08:54;26.40;64.30
4107;DHT22;21906;50.812;7.132;2023-08-24T13:11:21;26.40;64.40
4107;DHT22;21906;50.812;7.132;2023-08-24T13:13:47;26.30;64.80
4107;DHT22;21906;50.812;7.132;2023-08-24T13:16:13;26.30;65.30
4107;DHT22;21906;50.812;7.132;2023-08-24T13:18:40;26.20;66.10
4107;DHT22;21906;50.812;7.132;2023-08-24T13:21:05;26.10;66.30
4107;DHT22;21906;50.812;7.132;2023-08-24T13:23:31;26.00;66.40
4107;DHT22;21906;50.812;7.132;2023-08-24T13:26:00;26.00;66.30
4107;DHT22;21906;50.812;7.132;2023-08-24T13:28:26;26.00;66.30
4107;DHT22;21906;50.812;7.132;2023-08-24T13:30:53;26.00;65.00
4107;DHT22;21906;50.812;7.132;2023-08-24T13:33:18;26.00;65.50
4107;DHT22;21906;50.812;7.132;2023-08-24T13:35:45;26.00;65.80
4107;DHT22;21906;50.812;7.132;2023-08-24T13:38:11;25.90;65.30
4107;DHT22;21906;50.812;7.132;2023-08-24T13:40:37;25.90;65.10
4107;DHT22;21906;50.812;7.132;2023-08-24T13:43:03;25.90;65.20
4107;DHT22;21906;50.812;7.132;2023-08-24T13:45:30;25.90;64.80
4107;DHT22;21906;50.812;7.132;2023-08-24T13:47:57;25.80;65.90
4107;DHT22;21906;50.812;7.132;2023-08-24T13:50:22;25.80;65.50
4107;DHT22;21906;50.812;7.132;2023-08-24T13:52:49;25.90;66.80
4107;DHT22;21906;50.812;7.132;2023-08-24T13:55:15;25.90;67.00
4107;DHT22;21906;50.812;7.132;2023-08-24T13:57:42;25.90;66.20
4107;DHT22;21906;50.812;7.132;2023-08-24T14:00:08;25.80;66.00
4107;DHT22;21906;50.812;7.132;2023-08-24T14:02:34;25.80;66.10
4107;DHT22;21906;50.812;7.132;2023-08-24T14:05:00;25.90;65.90
4107;DHT22;21906;50.812;7.132;2023-08-24T14:07:25;25.80;65.80
4107;DHT22;21906;50.812;7.132;2023-08-24T14:09:51;25.80;66.20
4107;DHT22;21906;50.812;7.132;2023-08-24T14:12:17;25.80;66.80
4107;DHT22;21906;50.812;7.132;2023-08-24T14:14:43;25.90;64.90
4107;DHT22;21906;50.812;7.132;2023-08-24T14:17:09;25.90;64.10
4107;DHT22;21906;50.812;7.132;2023-08-24T14:19:34;25.90;64.40
4107;DHT22;21906;50.812;7.132;2023-08-24T14:22:00;25.90;64.70
4107;DHT22;21906;50.812;7.132;2023-08-24T14:24:26;25.90;64.80
4107;DHT22;21906;50.812;7.132;2023-08-24T14:26:52;25.80;65.20
4107;DHT22;21906;50.812;7.132;2023-08-24T14:29:17;25.80;65.90
4107;DHT22;21906;50.812;7.132;2023-08-24T14:31:43;25.60;66.10
4107;DHT22;21906;50.812;7.132;2023-08-24T14:34:09;25.50;66.60
4107;DHT22;21906;50.812;7.132;2023-08-24T14:36:35;25.50;66.90
4107;DHT22;21906;50.812;7.132;2023-08-24T14:39:01;25.40;66.80
4107;DHT22;21906;50.812;7.132;2023-08-24T14:41:27;25.40;67.00
4107;DHT22;21906;50.812;7.132;2023-08-24T14:43:53;25.30;67.20
4107;DHT22;21906;50.812;7.132;2023-08-24T14:46:19;25.30;67.10
4107;DHT22;21906;50.812;7.132;2023-08-24T14:48:44;25.30;67.60
4107;DHT22;21906;50.812;7.132;2023-08-24T14:51:10;25.20;67.80
4107;DHT22;21906;50.812;7.132;2023-08-24T14:53:36;25.10;68.10
4107;DHT22;21906;50.812;7.132;2023-08-24T14:56:03;25.10;68.40
4107;DHT22;21906;50.812;7.132;2023-08-24T14:58:29;25.00;68.80
4107;DHT22;21906;50.812;7.132;2023-08-24T15:00:57;24.90;69.60
4107;DHT22;21906;50.812;7.132;2023-08-24T15:03:23;24.90;69.70
4107;DHT22;21906;50.812;7.132;2023-08-24T15:06:01;24.80;70.00
4107;DHT22;21906;50.812;7.132;2023-08-24T15:08:29;24.90;69.40
4107;DHT22;21906;50.812;7.132;2023-08-24T15:10:58;24.80;70.00
4107;DHT22;21906;50.812;7.132;2023-08-24T15:13:26;24.70;69.40
4107;DHT22;21906;50.812;7.132;2023-08-24T15:15:54;24.70;70.10
4107;DHT22;21906;50.812;7.132;2023-08-24T15:18:21;24.70;70.50
4107;DHT22;21906;50.812;7.132;2023-08-24T15:20:47;24.70;70.70
4107;DHT22;21906;50.812;7.132;2023-08-24T15:23:27;24.60;71.00
4107;DHT22;21906;50.812;7.132;2023-08-24T15:25:58;24.60;71.20
4107;DHT22;21906;50.812;7.132;2023-08-24T15:28:24;24.60;71.30
4107;DHT22;21906;50.812;7.132;2023-08-24T15:30:50;24.60;70.70
4107;DHT22;21906;50.812;7.132;2023-08-24T15:33:19;24.60;70.10
4107;DHT22;21906;50.812;7.132;2023-08-24T15:35:45;24.60;70.50
4107;DHT22;21906;50.812;7.132;2023-08-24T15:38:11;24.60;69.50
4107;DHT22;21906;50.812;7.132;2023-08-24T15:40:37;24.40;69.60
4107;DHT22;21906;50.812;7.132;2023-08-24T15:43:05;24.40;69.90
4107;DHT22;21906;50.812;7.132;2023-08-24T15:45:30;24.30;70.00
4107;DHT22;21906;50.812;7.132;2023-08-24T15:47:57;24.20;70.30
4107;DHT22;21906;50.812;7.132;2023-08-24T15:50:25;24.20;70.70
4107;DHT22;21906;50.812;7.132;2023-08-24T15:52:51;24.00;71.50
4107;DHT22;21906;50.812;7.132;2023-08-24T15:55:28;23.90;71.90